Time;durP1;ratioP1;P1;durP2;ratioP2;P2;SDS_P1;SDS_P2;PMS_P1;PMS_P2;Temp;Humidity;BMP_temperature;BMP_pressure;BME280_temperature;BME280_humidity;BME280_pressure;Samples;Min_cycle;Max_cycle;Signal;HPM_P1;HPM_P2
2023/03/04 00:01:19;;;;;;;;;;;5.90;99.90;;;;;;4848420;29;20019;-71
2023/03/04 00:03:45;;;;;;;;;;;5.90;99.90;;;;;;4848193;29;20269;-71
2023/03/04 00:06:11;;;;;;;;;;;5.90;99.90;;;;;;4880268;29;19928;-71
2023/03/04 00:08:37;;;;;;;;;;;5.90;99.90;;;;;;4863392;29;19931;-71
2023/03/04 00:11:02;;;;;;;;;;;5.90;99.90;;;;;;4863449;29;19979;-71
2023/03/04 00:13:28;;;;;;;;;;;5.90;99.90;;;;;;4848390;29;19943;-71
2023/03/04 00:15:53;;;;;;;;;;;5.90;99.90;;;;;;4847925;29;19997;-71
2023/03/04 00:18:20;;;;;;;;;;;5.90;99.90;;;;;;4880042;29;19928;-71
2023/03/04 00:20:45;;;;;;;;;;;5.90;99.90;;;;;;4862880;29;19935;-71
2023/03/04 00:23:11;;;;;;;;;;;5.90;99.90;;;;;;4863514;29;19927;-71
2023/03/04 00:25:36;;;;;;;;;;;5.90;99.90;;;;;;4878867;29;19986;-71
2023/03/04 00:28:02;;;;;;;;;;;5.90;99.90;;;;;;4862998;29;19928;-72
2023/03/04 00:30:28;;;;;;;;;;;5.90;99.90;;;;;;4863260;29;19928;-71
2023/03/04 00:32:53;;;;;;;;;;;5.80;99.90;;;;;;4847617;29;19932;-71
2023/03/04 00:35:19;;;;;;;;;;;5.90;99.90;;;;;;4879971;29;19927;-72
2023/03/04 00:37:44;;;;;;;;;;;5.80;99.90;;;;;;4862747;29;19928;-72
2023/03/04 00:40:10;;;;;;;;;;;5.90;99.90;;;;;;4879113;29;20044;-71
2023/03/04 00:42:36;;;;;;;;;;;5.90;99.90;;;;;;4863231;29;19928;-71
2023/03/04 00:45:02;;;;;;;;;;;5.90;99.90;;;;;;4861730;29;19924;-71
2023/03/04 00:47:27;;;;;;;;;;;5.90;99.90;;;;;;4862647;29;20304;-72
2023/03/04 00:49:53;;;;;;;;;;;5.90;99.90;;;;;;4862410;29;20018;-71
2023/03/04 00:52:18;;;;;;;;;;;5.90;99.90;;;;;;4879513;29;19927;-71
2023/03/04 00:54:44;;;;;;;;;;;5.90;99.90;;;;;;4847516;29;19928;-78
2023/03/04 00:57:10;;;;;;;;;;;5.90;99.90;;;;;;4862629;29;19984;-71
2023/03/04 00:59:36;;;;;;;;;;;5.90;99.90;;;;;;4862613;29;19957;-74
2023/03/04 01:02:01;;;;;;;;;;;5.90;99.90;;;;;;4846764;29;20321;-73
2023/03/04 01:04:27;;;;;;;;;;;5.90;99.90;;;;;;4879630;29;19931;-71
2023/03/04 01:06:52;;;;;;;;;;;5.90;99.90;;;;;;4846848;29;19995;-71
2023/03/04 01:09:18;;;;;;;;;;;5.90;99.90;;;;;;4862804;29;19934;-71
2023/03/04 01:11:43;;;;;;;;;;;5.90;99.90;;;;;;4847361;29;19928;-71
2023/03/04 01:14:09;;;;;;;;;;;5.80;99.90;;;;;;4878616;29;20023;-71
2023/03/04 01:16:35;;;;;;;;;;;5.80;99.90;;;;;;4847269;29;19935;-71
2023/03/04 01:19:00;;;;;;;;;;;5.80;99.90;;;;;;4862115;29;19927;-71
2023/03/04 01:21:26;;;;;;;;;;;5.80;99.90;;;;;;4862297;29;20291;-72
2023/03/04 01:23:52;;;;;;;;;;;5.80;99.90;;;;;;4861852;29;19935;-71
2023/03/04 01:26:17;;;;;;;;;;;5.70;99.90;;;;;;4862568;29;19932;-71
2023/03/04 01:28:43;;;;;;;;;;;5.70;99.90;;;;;;4862301;29;19928;-71
2023/03/04 01:31:08;;;;;;;;;;;5.60;99.90;;;;;;4861921;29;19932;-71
2023/03/04 01:33:34;;;;;;;;;;;5.70;99.90;;;;;;4862216;29;19927;-72
2023/03/04 01:35:59;;;;;;;;;;;5.70;99.90;;;;;;4846445;29;19979;-71
2023/03/04 01:38:25;;;;;;;;;;;5.70;99.90;;;;;;4862220;29;19976;-72
2023/03/04 01:40:51;;;;;;;;;;;5.70;99.90;;;;;;4878214;29;19983;-77
2023/03/04 01:43:27;;;;;;;;;;;5.70;99.90;;;;;;4861976;29;19938;-71
2023/03/04 01:45:54;;;;;;;;;;;5.70;99.90;;;;;;4861942;29;19987;-78
2023/03/04 01:48:23;;;;;;;;;;;5.70;99.90;;;;;;4862145;29;19980;-72
2023/03/04 01:50:49;;;;;;;;;;;5.70;99.90;;;;;;4861834;29;19928;-70
2023/03/04 01:53:22;;;;;;;;;;;5.60;99.90;;;;;;4861659;29;20390;-70
2023/03/04 01:55:48;;;;;;;;;;;5.60;99.90;;;;;;4878242;29;20398;-71
2023/03/04 01:58:14;;;;;;;;;;;5.60;99.90;;;;;;4861403;29;20414;-71
2023/03/04 02:00:40;;;;;;;;;;;5.60;99.90;;;;;;4877663;29;20035;-71
2023/03/04 02:03:07;;;;;;;;;;;5.60;99.90;;;;;;4846156;29;19928;-70
2023/03/04 02:05:34;;;;;;;;;;;5.60;99.90;;;;;;4861936;29;19927;-71
2023/03/04 02:08:00;;;;;;;;;;;5.60;99.90;;;;;;4846130;29;20476;-71
2023/03/04 02:10:26;;;;;;;;;;;5.60;99.90;;;;;;4861350;29;20458;-71
2023/03/04 02:12:51;;;;;;;;;;;5.60;99.90;;;;;;4878373;29;20027;-70
2023/03/04 02:15:17;;;;;;;;;;;5.60;99.90;;;;;;4861600;29;19979;-70
2023/03/04 02:17:43;;;;;;;;;;;5.50;99.90;;;;;;4861925;29;19970;-70
2023/03/04 02:20:21;;;;;;;;;;;5.50;99.90;;;;;;4861202;29;19927;-71
2023/03/04 02:22:56;;;;;;;;;;;5.50;99.90;;;;;;4846517;29;19938;-70
2023/03/04 02:25:24;;;;;;;;;;;5.50;99.90;;;;;;4861732;29;19935;-71
2023/03/04 02:27:50;;;;;;;;;;;5.50;99.90;;;;;;4877857;29;20422;-70
2023/03/04 02:30:17;;;;;;;;;;;5.50;99.90;;;;;;4846037;29;19942;-70
2023/03/04 02:32:42;;;;;;;;;;;5.60;99.90;;;;;;4861788;29;19934;-71
2023/03/04 02:35:13;;;;;;;;;;;5.60;99.90;;;;;;4845745;29;19927;-71
2023/03/04 02:37:38;;;;;;;;;;;5.60;99.90;;;;;;4861840;29;20326;-71
2023/03/04 02:40:05;;;;;;;;;;;5.70;99.90;;;;;;4876090;29;19928;-73
2023/03/04 02:42:30;;;;;;;;;;;5.60;99.90;;;;;;4877631;29;20004;-74
2023/03/04 02:45:00;;;;;;;;;;;5.60;99.90;;;;;;4846396;29;19928;-70
2023/03/04 02:47:25;;;;;;;;;;;5.70;99.90;;;;;;4861100;29;19932;-71
2023/03/04 02:49:51;;;;;;;;;;;5.60;99.90;;;;;;4861200;29;20071;-70
2023/03/04 02:52:18;;;;;;;;;;;5.60;99.90;;;;;;4830222;29;19932;-70
2023/03/04 02:54:43;;;;;;;;;;;5.70;99.90;;;;;;4877877;29;20015;-70
2023/03/04 02:57:10;;;;;;;;;;;5.70;99.90;;;;;;4845831;29;20559;-70
2023/03/04 02:59:36;;;;;;;;;;;5.60;99.90;;;;;;4877993;29;19936;-73
2023/03/04 03:02:02;;;;;;;;;;;5.60;99.90;;;;;;4861789;29;19928;-74
2023/03/04 03:04:28;;;;;;;;;;;5.60;99.90;;;;;;4880141;29;19980;-70
2023/03/04 03:06:54;;;;;;;;;;;5.60;99.90;;;;;;4864533;29;19932;-70
2023/03/04 03:09:19;;;;;;;;;;;5.60;99.90;;;;;;4864512;29;20014;-70
2023/03/04 03:11:45;;;;;;;;;;;5.60;99.90;;;;;;4849387;29;20388;-70
2023/03/04 03:14:10;;;;;;;;;;;5.70;99.90;;;;;;4864276;29;19928;-71
2023/03/04 03:16:36;;;;;;;;;;;5.60;99.90;;;;;;4864800;29;19928;-70
2023/03/04 03:19:02;;;;;;;;;;;5.70;99.90;;;;;;4864767;29;20059;-70
2023/03/04 03:21:27;;;;;;;;;;;5.70;99.90;;;;;;4864073;29;19932;-71
2023/03/04 03:23:53;;;;;;;;;;;5.70;99.90;;;;;;4880200;29;19960;-70
2023/03/04 03:26:19;;;;;;;;;;;5.70;99.90;;;;;;4879749;29;19934;-70
2023/03/04 03:28:44;;;;;;;;;;;5.60;99.90;;;;;;4864452;29;20067;-70
2023/03/04 03:31:10;;;;;;;;;;;5.60;99.90;;;;;;4848894;29;20287;-70
2023/03/04 03:33:35;;;;;;;;;;;5.60;99.90;;;;;;4864326;29;19932;-70
2023/03/04 03:36:02;;;;;;;;;;;5.60;99.90;;;;;;4864125;29;19975;-70
2023/03/04 03:38:27;;;;;;;;;;;5.60;99.90;;;;;;4848363;29;19964;-69
2023/03/04 03:40:53;;;;;;;;;;;5.70;99.90;;;;;;4848253;29;19928;-70
2023/03/04 03:43:19;;;;;;;;;;;5.70;99.90;;;;;;4864006;29;19934;-71
2023/03/04 03:45:44;;;;;;;;;;;5.70;99.90;;;;;;4864009;29;19932;-70
2023/03/04 03:48:10;;;;;;;;;;;5.60;99.90;;;;;;4864132;29;20010;-77
2023/03/04 03:50:35;;;;;;;;;;;5.60;99.90;;;;;;4864057;29;19935;-70
2023/03/04 03:53:02;;;;;;;;;;;5.70;99.90;;;;;;4864106;29;19936;-70
2023/03/04 03:55:27;;;;;;;;;;;5.70;99.90;;;;;;4863548;29;20068;-70
2023/03/04 03:57:53;;;;;;;;;;;5.70;99.90;;;;;;4879613;29;20018;-70
2023/03/04 04:00:19;;;;;;;;;;;5.60;99.90;;;;;;4878970;29;20312;-70
2023/03/04 04:02:44;;;;;;;;;;;5.60;99.90;;;;;;4879433;29;19935;-70
2023/03/04 04:05:10;;;;;;;;;;;5.60;99.90;;;;;;4880182;29;20376;-70
2023/03/04 04:07:36;;;;;;;;;;;5.70;99.90;;;;;;4863284;29;19947;-70
2023/03/04 04:10:03;;;;;;;;;;;5.70;99.90;;;;;;4863810;29;19935;-70
2023/03/04 04:12:28;;;;;;;;;;;5.70;99.90;;;;;;4879511;29;19927;-70
2023/03/04 04:14:54;;;;;;;;;;;5.70;99.90;;;;;;4863584;29;19956;-73
2023/03/04 04:17:19;;;;;;;;;;;5.70;99.90;;;;;;4847810;29;19928;-71
2023/03/04 04:19:45;;;;;;;;;;;5.70;99.90;;;;;;4848289;29;19928;-70
2023/03/04 04:22:13;;;;;;;;;;;5.70;99.90;;;;;;4879850;29;20537;-70
2023/03/04 04:24:38;;;;;;;;;;;5.70;99.90;;;;;;4863293;29;19979;-71
2023/03/04 04:27:04;;;;;;;;;;;5.70;99.90;;;;;;4863270;29;20352;-70
2023/03/04 04:29:30;;;;;;;;;;;5.70;99.90;;;;;;4878696;29;19927;-70
2023/03/04 04:31:55;;;;;;;;;;;5.70;99.90;;;;;;4848135;29;19934;-70
2023/03/04 04:34:21;;;;;;;;;;;5.70;99.90;;;;;;4878561;29;20288;-70
2023/03/04 04:36:47;;;;;;;;;;;5.70;99.90;;;;;;4847447;29;19987;-71
2023/03/04 04:39:12;;;;;;;;;;;5.70;99.90;;;;;;4878625;29;19928;-70
2023/03/04 04:41:39;;;;;;;;;;;5.70;99.90;;;;;;4862496;29;20566;-70
2023/03/04 04:44:05;;;;;;;;;;;5.70;99.90;;;;;;4863224;29;20287;-70
2023/03/04 04:46:31;;;;;;;;;;;5.80;99.90;;;;;;4847365;29;19935;-70
2023/03/04 04:48:56;;;;;;;;;;;5.70;99.90;;;;;;4863051;29;19980;-70
2023/03/04 04:51:22;;;;;;;;;;;5.70;99.90;;;;;;4862375;29;19950;-70
2023/03/04 04:53:47;;;;;;;;;;;5.70;99.90;;;;;;4862897;29;19982;-70
2023/03/04 04:56:18;;;;;;;;;;;5.70;99.90;;;;;;4862398;29;19950;-70
2023/03/04 04:58:44;;;;;;;;;;;5.70;99.90;;;;;;4862326;29;19928;-70
2023/03/04 05:01:10;;;;;;;;;;;5.70;99.90;;;;;;4862624;29;19928;-70
2023/03/04 05:03:36;;;;;;;;;;;5.70;99.90;;;;;;4862165;29;20018;-71
2023/03/04 05:06:03;;;;;;;;;;;5.80;99.90;;;;;;4862741;29;19934;-71
2023/03/04 05:08:28;;;;;;;;;;;5.60;99.90;;;;;;4862193;29;20391;-71
2023/03/04 05:10:54;;;;;;;;;;;5.60;99.90;;;;;;4878268;29;19927;-74
2023/03/04 05:13:20;;;;;;;;;;;5.60;99.90;;;;;;4862347;29;20363;-72
2023/03/04 05:15:45;;;;;;;;;;;5.70;99.90;;;;;;4831756;29;19983;-71
2023/03/04 05:18:11;;;;;;;;;;;5.70;99.90;;;;;;4847018;29;19979;-71
2023/03/04 05:20:37;;;;;;;;;;;5.70;99.90;;;;;;4861591;29;19935;-72
2023/03/04 05:23:02;;;;;;;;;;;5.60;99.90;;;;;;4860973;29;19927;-72
2023/03/04 05:25:28;;;;;;;;;;;5.60;99.90;;;;;;4877599;29;20018;-73
2023/03/04 05:27:53;;;;;;;;;;;5.60;99.90;;;;;;4861792;29;19935;-71
2023/03/04 05:30:19;;;;;;;;;;;5.60;99.90;;;;;;4862282;29;20295;-71
2023/03/04 05:32:45;;;;;;;;;;;5.60;99.90;;;;;;4861807;29;19930;-71
2023/03/04 05:35:10;;;;;;;;;;;5.50;99.90;;;;;;4861885;29;20031;-72
2023/03/04 05:37:36;;;;;;;;;;;5.60;99.90;;;;;;4861509;29;20019;-72
2023/03/04 05:40:04;;;;;;;;;;;5.60;99.90;;;;;;4875301;29;20230;-73
2023/03/04 05:42:29;;;;;;;;;;;5.60;99.90;;;;;;4860882;29;19932;-73
2023/03/04 05:44:55;;;;;;;;;;;5.60;99.90;;;;;;4878375;29;19944;-74
2023/03/04 05:47:21;;;;;;;;;;;5.40;99.90;;;;;;4846738;29;20019;-72
2023/03/04 05:49:46;;;;;;;;;;;5.50;99.90;;;;;;4876974;29;20508;-73
2023/03/04 05:52:12;;;;;;;;;;;5.50;99.90;;;;;;4862198;29;20026;-72
2023/03/04 05:54:37;;;;;;;;;;;5.50;99.90;;;;;;4877137;29;19928;-73
2023/03/04 05:57:03;;;;;;;;;;;5.50;99.90;;;;;;4862172;29;20021;-72
2023/03/04 05:59:29;;;;;;;;;;;5.50;99.90;;;;;;4877337;29;20453;-79
2023/03/04 06:01:54;;;;;;;;;;;5.60;99.90;;;;;;4861695;29;19982;-72
2023/03/04 06:04:20;;;;;;;;;;;5.50;99.90;;;;;;4861826;29;19927;-72
2023/03/04 06:06:46;;;;;;;;;;;5.50;99.90;;;;;;4831225;29;19933;-72
2023/03/04 06:09:12;;;;;;;;;;;5.60;99.90;;;;;;4846435;29;19928;-72
2023/03/04 06:11:38;;;;;;;;;;;5.60;99.90;;;;;;4861301;29;19938;-74
2023/03/04 06:14:03;;;;;;;;;;;5.50;99.90;;;;;;4861871;29;20041;-72
2023/03/04 06:16:29;;;;;;;;;;;5.50;99.90;;;;;;4877311;29;20395;-72
2023/03/04 06:18:55;;;;;;;;;;;5.50;99.90;;;;;;4876757;29;19950;-73
2023/03/04 06:21:20;;;;;;;;;;;5.60;99.90;;;;;;4861557;29;19979;-72
2023/03/04 06:23:46;;;;;;;;;;;5.50;99.90;;;;;;4876313;29;20352;-72
2023/03/04 06:26:14;;;;;;;;;;;5.50;99.90;;;;;;4877993;29;19928;-72
2023/03/04 06:28:40;;;;;;;;;;;5.50;99.90;;;;;;4861129;29;19935;-72
2023/03/04 06:31:06;;;;;;;;;;;5.50;99.90;;;;;;4861526;29;20353;-72
2023/03/04 06:33:31;;;;;;;;;;;5.50;99.90;;;;;;4861389;29;19928;-72
2023/03/04 06:35:57;;;;;;;;;;;5.50;99.90;;;;;;4861870;29;20062;-73
2023/03/04 06:38:23;;;;;;;;;;;5.40;99.90;;;;;;4881780;29;19983;-71
2023/03/04 06:40:49;;;;;;;;;;;5.50;99.90;;;;;;4864328;29;20348;-72
2023/03/04 06:43:14;;;;;;;;;;;5.40;99.90;;;;;;4849661;29;19928;-72
2023/03/04 06:45:40;;;;;;;;;;;5.40;99.90;;;;;;4864316;29;19928;-71
2023/03/04 06:48:05;;;;;;;;;;;5.40;99.90;;;;;;4864994;29;20044;-72
2023/03/04 06:50:31;;;;;;;;;;;5.50;99.90;;;;;;4881531;29;20292;-71
2023/03/04 06:52:57;;;;;;;;;;;5.40;99.90;;;;;;4864292;29;20023;-72
2023/03/04 06:55:23;;;;;;;;;;;5.40;99.90;;;;;;4849399;29;20444;-72
2023/03/04 06:57:48;;;;;;;;;;;5.50;99.90;;;;;;4864046;29;20407;-72
2023/03/04 07:00:14;;;;;;;;;;;5.50;99.90;;;;;;4864871;29;20030;-72
2023/03/04 07:02:40;;;;;;;;;;;5.50;99.90;;;;;;4864054;29;19935;-74
2023/03/04 07:05:06;;;;;;;;;;;5.50;99.90;;;;;;4864456;29;20262;-72
2023/03/04 07:07:32;;;;;;;;;;;5.50;99.90;;;;;;4881179;29;20072;-72
2023/03/04 07:09:57;;;;;;;;;;;5.60;99.90;;;;;;4848888;29;19932;-72
2023/03/04 07:12:23;;;;;;;;;;;5.70;99.90;;;;;;4864775;29;19935;-72
2023/03/04 07:14:49;;;;;;;;;;;5.70;99.90;;;;;;4864007;29;19932;-72
2023/03/04 07:17:14;;;;;;;;;;;5.60;99.90;;;;;;4881170;29;19983;-73
2023/03/04 07:19:40;;;;;;;;;;;5.70;99.90;;;;;;4864518;29;19950;-78
2023/03/04 07:22:06;;;;;;;;;;;5.70;99.90;;;;;;4879489;29;19928;-71
2023/03/04 07:24:32;;;;;;;;;;;5.80;99.90;;;;;;4864079;29;19928;-72
2023/03/04 07:26:57;;;;;;;;;;;5.70;99.90;;;;;;4879219;29;19943;-71
2023/03/04 07:29:23;;;;;;;;;;;5.70;99.90;;;;;;4864334;29;19927;-71
2023/03/04 07:31:48;;;;;;;;;;;5.70;99.90;;;;;;4863850;29;19988;-71
2023/03/04 07:34:14;;;;;;;;;;;5.70;99.90;;;;;;4863727;29;19935;-71
2023/03/04 07:36:40;;;;;;;;;;;5.70;99.90;;;;;;4864129;29;19928;-73
2023/03/04 07:39:06;;;;;;;;;;;5.80;99.90;;;;;;4863859;29;20071;-70
2023/03/04 07:41:35;;;;;;;;;;;5.80;99.90;;;;;;4863520;29;19928;-71
2023/03/04 07:44:01;;;;;;;;;;;5.90;99.90;;;;;;4848152;29;19928;-72
2023/03/04 07:46:27;;;;;;;;;;;5.90;99.90;;;;;;4863932;29;20018;-72
2023/03/04 07:48:53;;;;;;;;;;;5.90;99.90;;;;;;4879558;29;19932;-72
2023/03/04 07:51:20;;;;;;;;;;;5.80;99.90;;;;;;4864158;29;20007;-71
2023/03/04 07:53:47;;;;;;;;;;;5.80;99.90;;;;;;4863733;29;19932;-78
2023/03/04 07:56:14;;;;;;;;;;;5.80;99.90;;;;;;4880185;29;19928;-73
2023/03/04 07:58:39;;;;;;;;;;;5.70;99.90;;;;;;4863972;29;19971;-76
2023/03/04 08:01:09;;;;;;;;;;;5.80;99.90;;;;;;4847726;29;20115;-72
2023/03/04 08:03:35;;;;;;;;;;;5.70;99.90;;;;;;4863728;29;19932;-73
2023/03/04 08:06:02;;;;;;;;;;;5.60;99.90;;;;;;4879780;29;19986;-73
2023/03/04 08:08:28;;;;;;;;;;;5.70;99.90;;;;;;4863394;29;20387;-73
2023/03/04 08:10:54;;;;;;;;;;;5.70;99.90;;;;;;4848069;29;20026;-72
2023/03/04 08:13:19;;;;;;;;;;;5.80;99.90;;;;;;4863712;29;19928;-72
2023/03/04 08:15:45;;;;;;;;;;;5.70;99.90;;;;;;4848005;29;19974;-72
2023/03/04 08:18:11;;;;;;;;;;;5.80;99.90;;;;;;4863026;29;19927;-72
2023/03/04 08:20:39;;;;;;;;;;;5.80;99.90;;;;;;4848129;29;19931;-73
2023/03/04 08:23:06;;;;;;;;;;;5.80;99.90;;;;;;4863338;29;19931;-71
2023/03/04 08:25:31;;;;;;;;;;;5.80;99.90;;;;;;4863379;29;20067;-72
2023/03/04 08:27:58;;;;;;;;;;;5.90;99.90;;;;;;4832187;29;20014;-72
2023/03/04 08:30:23;;;;;;;;;;;5.80;99.90;;;;;;4847993;29;19938;-71
2023/03/04 08:32:49;;;;;;;;;;;5.80;99.90;;;;;;4863083;29;19927;-72
2023/03/04 08:35:14;;;;;;;;;;;5.80;99.90;;;;;;4878049;29;20002;-72
2023/03/04 08:37:40;;;;;;;;;;;5.80;99.90;;;;;;4862988;29;19928;-77
2023/03/04 08:40:06;;;;;;;;;;;5.80;99.90;;;;;;4847019;29;19935;-73
2023/03/04 08:42:31;;;;;;;;;;;5.90;99.90;;;;;;4847416;29;20436;-73
2023/03/04 08:44:57;;;;;;;;;;;5.90;99.90;;;;;;4847231;29;19943;-73
2023/03/04 08:47:23;;;;;;;;;;;6.00;99.90;;;;;;4862883;29;19934;-73
2023/03/04 08:49:48;;;;;;;;;;;6.00;99.90;;;;;;4862690;29;20086;-72
2023/03/04 08:52:14;;;;;;;;;;;6.00;99.90;;;;;;4877702;29;20066;-72
2023/03/04 08:54:39;;;;;;;;;;;6.00;99.90;;;;;;4847156;29;19971;-73
2023/03/04 08:57:06;;;;;;;;;;;6.00;99.90;;;;;;4847063;29;19928;-72
2023/03/04 08:59:32;;;;;;;;;;;6.10;99.90;;;;;;4861381;29;19928;-72
2023/03/04 09:01:57;;;;;;;;;;;6.10;99.90;;;;;;4877515;29;19979;-73
2023/03/04 09:04:23;;;;;;;;;;;6.10;99.90;;;;;;4878033;29;19935;-71
2023/03/04 09:06:49;;;;;;;;;;;6.10;99.90;;;;;;4832345;29;19982;-71
2023/03/04 09:09:14;;;;;;;;;;;6.10;99.90;;;;;;4862319;29;20083;-71
2023/03/04 09:11:40;;;;;;;;;;;6.20;99.90;;;;;;4862154;29;20010;-71
2023/03/04 09:14:05;;;;;;;;;;;6.20;99.90;;;;;;4862109;29;19935;-71
2023/03/04 09:16:31;;;;;;;;;;;6.20;99.90;;;;;;4878073;29;19996;-70
2023/03/04 09:18:56;;;;;;;;;;;6.20;99.90;;;;;;4846910;29;19932;-77
2023/03/04 09:21:22;;;;;;;;;;;6.20;99.90;;;;;;4831587;29;20027;-71
2023/03/04 09:23:48;;;;;;;;;;;6.30;99.90;;;;;;4877917;29;19928;-72
2023/03/04 09:26:24;;;;;;;;;;;6.30;99.90;;;;;;4877640;29;20288;-71
2023/03/04 09:28:54;;;;;;;;;;;6.20;99.90;;;;;;4862391;29;19980;-71
2023/03/04 09:31:20;;;;;;;;;;;6.20;99.90;;;;;;4878511;29;19959;-71
2023/03/04 09:33:46;;;;;;;;;;;6.20;99.90;;;;;;4846906;29;20002;-72
2023/03/04 09:36:12;;;;;;;;;;;6.20;99.90;;;;;;4846385;29;19935;-71
2023/03/04 09:38:38;;;;;;;;;;;6.30;99.90;;;;;;4861898;29;20245;-70
2023/03/04 09:41:09;;;;;;;;;;;6.30;99.90;;;;;;4842943;29;19928;-75
2023/03/04 09:43:36;;;;;;;;;;;6.40;99.90;;;;;;4858786;29;20028;-72
2023/03/04 09:46:06;;;;;;;;;;;6.50;99.90;;;;;;4858738;29;19932;-82
2023/03/04 09:48:39;;;;;;;;;;;6.50;99.90;;;;;;4859785;29;19950;-74
2023/03/04 09:51:17;;;;;;;;;;;6.70;99.90;;;;;;4858651;29;20031;-72
2023/03/04 09:53:45;;;;;;;;;;;6.90;99.90;;;;;;4859028;29;19944;-71
2023/03/04 09:56:12;;;;;;;;;;;6.90;99.90;;;;;;4858682;29;20001;-71
2023/03/04 09:58:55;;;;;;;;;;;7.00;99.90;;;;;;4843717;29;20028;-71
2023/03/04 10:01:24;;;;;;;;;;;6.90;99.90;;;;;;4858438;29;19986;-70
2023/03/04 10:03:57;;;;;;;;;;;6.90;99.90;;;;;;4858855;29;20025;-73
2023/03/04 10:06:23;;;;;;;;;;;6.80;99.90;;;;;;4873829;29;19935;-70
2023/03/04 10:09:00;;;;;;;;;;;6.70;99.90;;;;;;4858532;29;20380;-69
2023/03/04 10:11:37;;;;;;;;;;;6.60;99.90;;;;;;4858315;29;19931;-68
2023/03/04 10:14:15;;;;;;;;;;;6.60;99.90;;;;;;4858406;29;19979;-70
2023/03/04 10:16:59;;;;;;;;;;;6.60;99.90;;;;;;4859692;29;20014;-70
2023/03/04 10:19:45;;;;;;;;;;;6.60;99.90;;;;;;4859484;29;19928;-69
2023/03/04 10:22:24;;;;;;;;;;;6.70;99.90;;;;;;4859276;29;19983;-72
2023/03/04 10:24:52;;;;;;;;;;;6.70;99.90;;;;;;4859769;29;19928;-69
2023/03/04 10:27:18;;;;;;;;;;;6.80;99.90;;;;;;4859177;29;20423;-68
2023/03/04 10:29:44;;;;;;;;;;;6.80;99.90;;;;;;4859814;29;19928;-71
2023/03/04 10:32:17;;;;;;;;;;;6.80;99.90;;;;;;4873459;29;20400;-68
2023/03/04 10:34:42;;;;;;;;;;;6.80;99.90;;;;;;4859619;29;19928;-68
2023/03/04 10:37:08;;;;;;;;;;;6.80;99.90;;;;;;4857914;29;19928;-75
2023/03/04 10:39:44;;;;;;;;;;;6.90;99.90;;;;;;4859503;29;19928;-68
2023/03/04 10:42:12;;;;;;;;;;;6.90;99.90;;;;;;4877609;29;19935;-77
2023/03/04 10:44:41;;;;;;;;;;;6.90;99.90;;;;;;4861546;29;19927;-69
2023/03/04 10:47:09;;;;;;;;;;;6.90;99.90;;;;;;4861607;29;20362;-69
2023/03/04 10:49:48;;;;;;;;;;;7.00;99.90;;;;;;4877385;29;20388;-68
2023/03/04 10:52:25;;;;;;;;;;;7.00;99.90;;;;;;4860980;29;19932;-68
2023/03/04 10:54:53;;;;;;;;;;;7.00;99.90;;;;;;4846351;29;19928;-69
2023/03/04 10:57:25;;;;;;;;;;;7.00;99.90;;;;;;4861059;29;19928;-69
2023/03/04 10:59:57;;;;;;;;;;;6.90;99.90;;;;;;4877473;29;20388;-68
2023/03/04 11:02:23;;;;;;;;;;;6.90;99.90;;;;;;4860683;29;19980;-69
2023/03/04 11:04:53;;;;;;;;;;;6.90;99.90;;;;;;4877784;29;20384;-70
2023/03/04 11:07:26;;;;;;;;;;;6.90;99.90;;;;;;4877107;29;19928;-69
2023/03/04 11:09:51;;;;;;;;;;;6.80;99.90;;;;;;4861207;29;20018;-74
2023/03/04 11:12:19;;;;;;;;;;;6.90;99.90;;;;;;4876677;29;19985;-68
2023/03/04 11:14:45;;;;;;;;;;;6.90;99.90;;;;;;4877717;29;20372;-69
2023/03/04 11:17:13;;;;;;;;;;;6.90;99.90;;;;;;4877522;29;20007;-68
2023/03/04 11:19:40;;;;;;;;;;;7.00;99.90;;;;;;4861156;29;19927;-69
2023/03/04 11:22:08;;;;;;;;;;;7.10;99.90;;;;;;4877860;29;19975;-69
2023/03/04 11:24:35;;;;;;;;;;;7.20;99.90;;;;;;4863629;29;19938;-68
2023/03/04 11:27:14;;;;;;;;;;;7.30;99.90;;;;;;4880971;29;20305;-68
2023/03/04 11:29:58;;;;;;;;;;;7.20;99.90;;;;;;4879685;29;19950;-69
2023/03/04 11:32:28;;;;;;;;;;;7.20;99.90;;;;;;4880666;29;20299;-69
2023/03/04 11:34:53;;;;;;;;;;;7.20;99.90;;;;;;4880454;29;19951;-71
2023/03/04 11:37:25;;;;;;;;;;;7.10;99.90;;;;;;4880255;29;19928;-71
2023/03/04 11:39:57;;;;;;;;;;;7.00;99.90;;;;;;4880570;29;19928;-70
2023/03/04 11:42:26;;;;;;;;;;;7.00;99.90;;;;;;4863706;29;20273;-69
2023/03/04 11:44:51;;;;;;;;;;;6.90;99.90;;;;;;4864297;29;19935;-69
2023/03/04 11:47:20;;;;;;;;;;;7.00;99.90;;;;;;4880540;29;19932;-78
2023/03/04 11:49:45;;;;;;;;;;;7.10;99.90;;;;;;4863885;29;19952;-70
2023/03/04 11:52:14;;;;;;;;;;;7.30;99.90;;;;;;4880642;29;19928;-70
2023/03/04 11:54:48;;;;;;;;;;;7.30;99.90;;;;;;4880413;29;19967;-69
2023/03/04 11:57:32;;;;;;;;;;;7.30;99.90;;;;;;4880489;29;19935;-69
2023/03/04 12:00:07;;;;;;;;;;;7.30;99.90;;;;;;4864095;29;20276;-67
2023/03/04 12:02:40;;;;;;;;;;;7.30;99.90;;;;;;4848263;29;20018;-69
2023/03/04 12:05:24;;;;;;;;;;;7.30;99.90;;;;;;4863925;29;19935;-72
2023/03/04 12:07:58;;;;;;;;;;;7.30;99.90;;;;;;4880386;29;19927;-69
2023/03/04 12:10:42;;;;;;;;;;;7.40;99.90;;;;;;4848520;29;19935;-69
2023/03/04 12:13:29;;;;;;;;;;;7.50;99.90;;;;;;4880794;29;19978;-69
2023/03/04 12:16:07;;;;;;;;;;;7.50;99.90;;;;;;4863861;29;20300;-69
2023/03/04 12:18:39;;;;;;;;;;;7.60;99.90;;;;;;4879901;29;19927;-69
2023/03/04 12:21:14;;;;;;;;;;;7.50;99.90;;;;;;4863887;29;19976;-69
2023/03/04 12:23:39;;;;;;;;;;;7.40;99.90;;;;;;4879879;29;20339;-69
2023/03/04 12:26:25;;;;;;;;;;;7.30;99.90;;;;;;4880116;29;19934;-69
2023/03/04 12:28:53;;;;;;;;;;;7.40;99.90;;;;;;4859630;29;19989;-69
2023/03/04 12:31:29;;;;;;;;;;;7.40;99.90;;;;;;4880076;29;20065;-70
2023/03/04 12:34:07;;;;;;;;;;;7.30;99.90;;;;;;4863438;29;19927;-72
2023/03/04 12:36:45;;;;;;;;;;;7.20;99.90;;;;;;4879822;29;19992;-70
2023/03/04 12:39:18;;;;;;;;;;;7.10;99.90;;;;;;4863500;29;19932;-70
2023/03/04 12:41:50;;;;;;;;;;;7.10;99.90;;;;;;4879647;29;19983;-72
2023/03/04 12:44:17;;;;;;;;;;;7.20;99.90;;;;;;4863251;29;20028;-69
2023/03/04 12:46:43;;;;;;;;;;;7.30;99.90;;;;;;4863065;29;20015;-69
2023/03/04 12:49:22;;;;;;;;;;;7.30;99.90;;;;;;4879470;29;20014;-70
2023/03/04 12:51:47;;;;;;;;;;;7.40;99.90;;;;;;4862797;29;19939;-66
2023/03/04 12:54:33;;;;;;;;;;;7.10;99.90;;;;;;4862960;29;19928;-68
2023/03/04 12:57:10;;;;;;;;;;;6.90;99.90;;;;;;4879592;29;19928;-69
2023/03/04 12:59:46;;;;;;;;;;;6.70;99.90;;;;;;4862478;29;19928;-68
2023/03/04 13:02:20;;;;;;;;;;;6.70;99.90;;;;;;4879395;29;20321;-70
2023/03/04 13:04:57;;;;;;;;;;;6.70;99.90;;;;;;4862244;29;20380;-71
2023/03/04 13:07:34;;;;;;;;;;;6.70;99.90;;;;;;4862963;29;19935;-70
2023/03/04 13:10:04;;;;;;;;;;;6.70;99.90;;;;;;4862641;29;20459;-69
2023/03/04 13:12:44;;;;;;;;;;;6.70;99.90;;;;;;4878969;29;19985;-70
2023/03/04 13:15:10;;;;;;;;;;;6.70;99.90;;;;;;4847563;29;19980;-69
2023/03/04 13:17:41;;;;;;;;;;;6.80;99.90;;;;;;4878854;29;19935;-69
2023/03/04 13:20:17;;;;;;;;;;;6.90;99.90;;;;;;4862623;29;20018;-69
2023/03/04 13:22:50;;;;;;;;;;;6.80;99.90;;;;;;4878958;29;19934;-69
2023/03/04 13:25:34;;;;;;;;;;;6.80;99.90;;;;;;4862360;29;19928;-69
2023/03/04 13:28:09;;;;;;;;;;;6.80;99.90;;;;;;4878999;29;20030;-70
2023/03/04 13:30:36;;;;;;;;;;;6.90;99.90;;;;;;4862338;29;19935;-70
2023/03/04 13:33:17;;;;;;;;;;;7.00;99.90;;;;;;4862732;29;20403;-68
2023/03/04 13:35:45;;;;;;;;;;;7.00;99.90;;;;;;4862261;29;20313;-69
2023/03/04 13:38:20;;;;;;;;;;;7.10;99.90;;;;;;4862350;29;19994;-69
2023/03/04 13:41:05;;;;;;;;;;;7.30;99.90;;;;;;4878291;29;19976;-70
2023/03/04 13:43:39;;;;;;;;;;;7.30;99.90;;;;;;4878919;29;19928;-69
2023/03/04 13:46:18;;;;;;;;;;;7.40;99.90;;;;;;4878268;29;19931;-69
2023/03/04 13:48:49;;;;;;;;;;;7.40;99.90;;;;;;4878234;29;19950;-69
2023/03/04 13:51:31;;;;;;;;;;;7.50;99.90;;;;;;4878487;29;20014;-67
2023/03/04 13:53:57;;;;;;;;;;;7.50;99.90;;;;;;4861668;29;19985;-70
2023/03/04 13:56:49;;;;;;;;;;;7.50;99.90;;;;;;4878276;29;20324;-70
2023/03/04 13:59:20;;;;;;;;;;;7.50;99.90;;;;;;4831894;29;19928;-70
2023/03/04 14:01:46;;;;;;;;;;;7.40;99.90;;;;;;4878050;29;19979;-70
2023/03/04 14:04:16;;;;;;;;;;;7.50;99.90;;;;;;4861609;29;20335;-69
2023/03/04 14:06:43;;;;;;;;;;;7.50;99.90;;;;;;4861676;29;20014;-68
2023/03/04 14:09:13;;;;;;;;;;;7.40;99.90;;;;;;4861682;29;20332;-67
2023/03/04 14:11:41;;;;;;;;;;;7.30;99.90;;;;;;4861346;29;19932;-74
2023/03/04 14:14:10;;;;;;;;;;;7.00;99.90;;;;;;4862000;29;20356;-72
2023/03/04 14:17:05;;;;;;;;;;;6.90;99.90;;;;;;4861690;29;19928;-69
2023/03/04 14:19:37;;;;;;;;;;;6.80;99.90;;;;;;4853071;29;19928;-69
2023/03/04 14:22:18;;;;;;;;;;;6.70;99.90;;;;;;4878006;29;19935;-70
2023/03/04 14:24:55;;;;;;;;;;;6.60;99.90;;;;;;4877859;29;19928;-69
2023/03/04 14:27:21;;;;;;;;;;;6.60;99.90;;;;;;4861444;29;20030;-70
2023/03/04 14:29:53;;;;;;;;;;;6.60;99.90;;;;;;4877739;29;20027;-70
2023/03/04 14:32:19;;;;;;;;;;;6.70;99.90;;;;;;4860932;29;20411;-70
2023/03/04 14:34:48;;;;;;;;;;;6.80;99.90;;;;;;4877766;29;19927;-69
2023/03/04 14:37:40;;;;;;;;;;;6.90;99.90;;;;;;4861709;29;19928;-69